EDT,Max TemperatureF,Mean TemperatureF,Min TemperatureF,Max Dew PointF,MeanDew PointF,Min DewpointF,Max Humidity, Mean Humidity, Min Humidity, Max Sea Level PressureIn, Mean Sea Level PressureIn, Min Sea Level PressureIn, Max VisibilityMiles, Mean VisibilityMiles, Min VisibilityMiles, Max Wind SpeedMPH, Mean Wind SpeedMPH, Max Gust SpeedMPH,PrecipitationIn, CloudCover, Events, WindDirDegrees
2013-8-1,85,76,67,68,65,58,97,69,40,30.02,29.98,29.94,10,7,2,14,4,17,0.00,4,,321
2013-8-2,84,73,62,63,61,59,93,69,44,30.04,30.01,29.98,10,10,9,12,4,16,0.00,1,,211
2013-8-3,87,79,71,70,67,63,79,68,57,30.04,29.98,29.96,10,10,10,17,4,24,T,5,,282
2013-8-4,81,73,64,67,56,49,84,60,35,30.14,30.10,30.04,10,10,10,14,5,22,0.00,1,,360
2013-8-5,83,71,58,59,56,53,90,64,37,30.12,30.05,29.95,10,10,10,9,3,16,0.00,1,,144
2013-8-6,84,78,72,73,66,58,88,71,54,29.98,29.94,29.91,10,10,7,9,3,15,0.00,6,,173
2013-8-7,85,79,73,73,73,71,100,83,65,29.98,29.93,29.87,10,7,2,9,3,13,0.00,5,,197
2013-8-8,87,81,75,74,72,71,94,78,61,29.98,29.93,29.88,10,10,10,12,5,16,0.01,5,,193
2013-8-9,83,79,75,75,74,72,100,87,74,30.02,29.97,29.91,10,7,0,12,4,15,0.87,7,Fog-Rain,216
2013-8-10,83,78,72,74,72,70,94,82,69,30.13,30.07,30.02,10,5,2,7,1,9,0.07,6,Rain,177
2013-8-11,89,81,72,73,69,65,94,70,46,30.11,30.07,30.03,10,8,3,13,3,18,T,4,Rain,303
2013-8-12,82,75,67,75,70,65,93,80,67,30.09,29.99,29.91,10,8,0,28,2,40,0.80,4,Fog-Rain-Thunderstorm,189
2013-8-13,82,73,63,72,67,52,97,74,51,30.06,29.94,29.89,10,6,1,16,6,23,0.53,5,Rain,322
2013-8-14,75,65,54,53,51,48,86,64,41,30.16,30.12,30.07,10,10,10,13,5,18,0.00,1,,10
2013-8-15,77,66,54,55,52,50,89,64,39,30.16,30.12,30.06,10,10,10,10,4,14,0.00,0,,55
2013-8-16,82,70,57,58,55,54,93,68,42,30.13,30.11,30.08,10,10,10,12,5,16,0.00,1,,32
2013-8-17,84,75,65,64,59,55,73,59,44,30.17,30.12,30.09,10,10,10,10,4,14,0.00,5,,71
2013-8-18,84,73,62,67,62,58,93,68,43,30.17,30.12,30.08,10,10,10,9,2,13,0.00,2,,44
2013-8-19,86,76,66,68,64,60,93,69,44,30.14,30.10,30.05,10,10,10,8,1,10,0.00,2,,78
2013-8-20,87,77,66,73,68,62,90,74,58,30.15,30.11,30.08,10,10,7,12,3,17,0.01,2,Rain-Thunderstorm,140
2013-8-21,89,79,69,72,69,67,97,74,50,30.18,30.11,30.05,10,10,9,14,3,17,0.00,1,,190
2013-8-22,91,81,71,72,69,64,93,69,44,30.13,30.08,30.02,10,10,9,16,3,21,0.00,1,,280
2013-8-23,88,80,71,70,67,63,93,68,43,30.11,30.06,30.02,10,9,6,12,3,16,0.00,1,,24
2013-8-24,89,78,66,66,60,50,84,55,26,30.24,30.19,30.12,10,10,10,12,3,16,0.00,0,,80
2013-8-25,89,76,62,67,62,58,87,62,36,30.32,30.26,30.21,10,10,10,8,2,12,0.00,0,,165
2013-8-26,90,80,70,71,68,66,90,69,47,30.26,30.19,30.10,10,10,9,12,5,15,0.00,1,,249
2013-8-27,90,82,74,73,71,70,87,70,52,30.11,30.05,29.98,10,9,5,13,6,16,0.00,1,,244
2013-8-28,95,85,74,73,69,65,88,62,36,30.01,29.97,29.92,10,9,6,17,8,23,0.00,1,,254
2013-8-29,93,85,76,73,69,63,87,63,38,30.03,29.98,29.95,10,10,7,9,3,17,0.00,2,,48
2013-8-30,94,83,71,71,69,65,90,65,39,29.98,29.93,29.84,10,9,5,10,2,13,0.00,1,,230
2013-8-31,95,83,70,74,70,66,82,66,49,29.93,29.86,29.77,10,8,1,24,7,40,1.39,5,Rain-Thunderstorm,134